Espace membre
Imprimable
Waimes, 30/05/2019, BEL - Les Cimes de Waimes
Liste des rapports > 70km - Classement
Recherche: Page: [1] 2
680 Entrées
 
Les réclamations ne sont plus acceptées, les résultats sont considérés comme définitifs.
Catégorie
PosNrLicenceNomAgeIOCEquipeTempsTkmMoy.RangNomLocalité
Vos photos gr?ce ? Sportograf1.3034910014850882RUIJTER Teus21NLDKONA LTD TEAM2:50:532:27 24.581eshEN SIEBENGEWALD
Vos photos gr?ce ? Sportograf2.8010088163280DEFOSSE Matisse19BELTEAM2RACE2:56:072:31 23.852eshJALHAY
Vos photos gr?ce ? Sportograf3.3110008128883CLOOSTERMANS Mathias25BELTEAM WILLIER FO2:56:462:32 23.761eliKESSEL
Vos photos gr?ce ? Sportograf4.710009366039KAISE Julien24BELTOP CYCLE TEAM2:56:462:32 23.762eliMAZY
Vos photos gr?ce ? Sportograf5.18910011019079BEECKMAN Arnaud22BELVANOMOBIL MTB C2:57:522:33 23.613eshOORDEGEM
Vos photos gr?ce ? Sportograf6.20810003489758BOON Niels40NLDMTB CLUB DISCOV3:00:392:35 23.251ma2MAASTRICHT
Vos photos gr?ce ? Sportograf7.27010023100431PETERS Roy26NLDKONALTDTEAM3:01:422:36 23.123eliGROESBEEK
Vos photos gr?ce ? Sportograf8.3033810015071154FLAMEND Pieter36BELMASTER FRIENDS 3:04:532:39 22.721ma1HASSELT
Vos photos gr?ce ? Sportograf9.7210015446424KNOCKAERT Sammy37BELHILAIRE XCM TEA3:05:022:39 22.702ma1VLAMERTINGE
Vos photos gr?ce ? Sportograf10.31810065240564JANNY Kenny32BELHOPDUVELS3:06:242:40 22.533ma1TERNAT
Vos photos gr?ce ? Sportograf11.16910012754672BOECKMANS Bart32BELBIKE-INN TEAM H3:06:302:40 22.524ma1HERENTALS
Vos photos gr?ce ? Sportograf12.32310065261681VERMEULEN Joris26BELGLAUDIS URMALE 3:07:542:42 22.354eliROTSELAAR
Vos photos gr?ce ? Sportograf13.18310022950382WILLEMS Erik51NLDFIT4CYCLING3:08:572:42 22.231ma3BRUNSSUM
Vos photos gr?ce ? Sportograf14.3710072587508CASTERMANS Jarne23BELHEIST CYCLING T3:09:042:43 22.225eliAARSCHOT
Vos photos gr?ce ? Sportograf15.1130HUTIN Michael33FRAORIGINE CYCLES3:09:152:43 22.195ma1TOURCOING
Vos photos gr?ce ? Sportograf16.30910015471581BOLLEN Stan20BELBIKE TEAM B613:09:352:43 22.164eshPEER
Vos photos gr?ce ? Sportograf17.6010016468661SCHOUTEDEN Bert32BELACROG - PAUWELS3:09:442:43 22.146ma1HELCHTEREN
Vos photos gr?ce ? Sportograf18.1729601164878JÉRÉMY Pip23BELHIGH FENS MTB3:10:082:43 22.096eliMALMEDY
Vos photos gr?ce ? Sportograf19.18010014108329DUPUIS Martin40BELROTWILD AGU RAC3:10:422:44 22.022ma2COURT-SAINT-ETIENNE
Vos photos gr?ce ? Sportograf20.11810049800689DUBOIS Frederic45BEL3:10:522:44 22.013ma2VOROUX GOREUX
Vos photos gr?ce ? Sportograf21.23610014369118GUILLAUME Geoffrey23BELTOP CYCLE CYCLI3:11:052:44 21.987eliCINEY
Vos photos gr?ce ? Sportograf22.21510092533031CREMER Sebastian29BELRSV ST VITH3:11:422:45 21.918eliST VITH
Vos photos gr?ce ? Sportograf23.310003211286DEHAES Kenny35BELWALLONIE BRUXEL3:11:452:45 21.907ma1OOST VLAANDEREN
Vos photos gr?ce ? Sportograf24.29410065240261VAN HOOF Senne32BELINDIVIDUEEL3:12:112:45 21.858ma1HEIST-OP-DEN-BERG
Vos photos gr?ce ? Sportograf25.12310014744485LHERMITE Emmanuel42FRA3:12:442:46 21.794ma2ESSEY LES NANCY
Vos photos gr?ce ? Sportograf26.13710056352536DE COCK Tommy42BELKLEIN-BRABANT M3:13:002:46 21.765ma2BUGGENHOUT
Vos photos gr?ce ? Sportograf27.16510053536203PEETERS Johan45BELKLEIN-BRABANT M3:13:012:46 21.766ma2BORNEM
Vos photos gr?ce ? Sportograf28.14810016369944CRIJNS Michiel19BELSPORT EN MOEDIG3:14:262:47 21.605eshDIEPENBEEK
Vos photos gr?ce ? Sportograf29.31710012759019GREEVEN Kevin29BELG&G TUINWERKEN3:14:542:48 21.559eliGEEL
Vos photos gr?ce ? Sportograf30.10302895227419CATTANEO Florent37FRAESMPC3:15:382:48 21.479ma1BAGNEUX
Vos photos gr?ce ? Sportograf31.122810079772073LICKI Cedric35BELTEAM BH GILKINE3:15:392:48 21.4710ma1FLEMALLE
Vos photos gr?ce ? Sportograf32.32420189390016VROEMEN Bas43NLDSTIPBIKE MOUNTA3:16:272:49 21.387ma2HEUMEN
Vos photos gr?ce ? Sportograf33.27410077934127RAMPEL Valentin19BELCRABBE TOITURES3:16:462:49 21.356eshLAHAGE (TINTIGNY)
Vos photos gr?ce ? Sportograf34.1168DEBRY Romain26BELDÉCATHLON ARLON3:17:172:50 21.2910eliSAINT LEGER
Vos photos gr?ce ? Sportograf35.8110004801177DE CLEYN Dave31BELRS BIKES RACING3:17:452:50 21.2411ma1RANST
Vos photos gr?ce ? Sportograf36.786NR 786 3:17:452:50 21.241xxx
Vos photos gr?ce ? Sportograf37.32210014922523CHEVALIER Vincent37BELTEL & CO CYCLIN3:18:122:50 21.1912ma1STERREBEEK
Vos photos gr?ce ? Sportograf38.3410073135051PRANGÈRE Hugo20FRAAC AMIENOISE3:18:152:50 21.197eshCAMON
Vos photos gr?ce ? Sportograf39.29610054585015VAN WAEYENBERGE Kevin33BELARDENNE BIKE3:18:172:50 21.1813ma1TROOZ
Vos photos gr?ce ? Sportograf40.20610013729221BEULENS David36BELCT ECO-PROJECT3:18:282:51 21.1614ma1MELDERT
Vos photos gr?ce ? Sportograf41.2708093567587BARDE Clement41FRARIVERY SPORT CY3:18:382:51 21.158ma2ST GRATIEN
Vos photos gr?ce ? Sportograf42.16GRIFNEE Frederic41BEL3:19:002:51 21.119ma2AUBEL
Vos photos gr?ce ? Sportograf43.16710013629894WILLIATTE Benjamin33FRAVTT ST AMAND LE3:19:312:52 21.0515ma1BAILLEUL
Vos photos gr?ce ? Sportograf44.837LIEBREGTS Raoul44NLDFANATIXC3:19:492:52 21.0210ma2SINT-OEDENRODE
Vos photos gr?ce ? Sportograf45.30110016511808VIAENE David29BELGEEN3:19:562:52 21.0111eliGENT
Vos photos gr?ce ? Sportograf46.198MARICHAL Florent27BEL3:20:052:52 20.9912eli
Vos photos gr?ce ? Sportograf47.96210016406219GEERTS Pieter31BELDERBIGUM MTB TE3:20:422:53 20.9316ma1LUMMEN
Vos photos gr?ce ? Sportograf48.6910022928962JOS Kaal51NLDLICHT VERZET3:20:582:53 20.902ma3KLEVE
Vos photos gr?ce ? Sportograf49.20710053206201BLEYS Tom44BELPANACHE MTB TEA3:21:052:53 20.8911ma2SCHRIEK
Vos photos gr?ce ? Sportograf50.19610053535900STRUYFS Nick37BELBIKE INN TEAM3:21:052:53 20.8917ma1POEDERLEE
Vos photos gr?ce ? Sportograf51.14010054721421LOWIES Jérôme37BELECW3:21:182:53 20.8718ma1AMAY
Vos photos gr?ce ? Sportograf52.5410016372974DE BOCK Jelle26BELC.T. KEUKENS BU3:21:252:53 20.8513eliMOERBEKE-WAAS
Vos photos gr?ce ? Sportograf53.1161RONALD VAN DEN BERG Ronald28NLD3:21:302:53 20.8414eliRHEDEN
Vos photos gr?ce ? Sportograf54.30410058533723WIJCKMANS Pieter38BELAPRÈS-BIKERS3:22:182:54 20.7619ma1WIEKEVORST
Vos photos gr?ce ? Sportograf55.21710023369304DE GROOT Jasper28NLDCYCLOTEAM.NL3:22:192:54 20.7615eliBERGAMBACHT
Vos photos gr?ce ? Sportograf56.22819510163952EVRAERT Niels24BEL/3:23:252:55 20.6516eliGAVERE
Vos photos gr?ce ? Sportograf57.25610083591146NEUBOURG Carl29BELTEL&CO CYCLING 3:23:542:55 20.6017eliWILSELE
Vos photos gr?ce ? Sportograf58.1144SCHAEFERS Francis32NLDMTB ARNHEM3:24:212:56 20.5520ma1DOORWERTH
Vos photos gr?ce ? Sportograf59.827DE POORTER Boudewijn51NLD3:24:342:56 20.533ma3SINT-OEDENRODE
Vos photos gr?ce ? Sportograf60.28710022985344TOUWEN Mark42NLDGAUL!3:25:192:56 20.4612ma2AMSTELVEEN
Vos photos gr?ce ? Sportograf61.30206DEPICKERE Bart38BELWAB TEAM3:25:542:57 20.4021ma1ZELZATE
Vos photos gr?ce ? Sportograf62.1047PEERS Wim43BELBIKE INN3:26:002:57 20.3913ma2BEVEL
Vos photos gr?ce ? Sportograf63.22010002997280DE VRIES Roel36NLDUWTC DE VOLHARD3:26:002:57 20.3922ma1UTRECHT
Vos photos gr?ce ? Sportograf64.16410003338602RIEMSLAGH Gianni40BELKLEIN-BRABANT M3:26:022:57 20.3914ma2BORNEM
Vos photos gr?ce ? Sportograf65.2310016370651CUSSE Corentin26BELXCBH-VERDON3:26:212:57 20.3618eliHARVENG
Vos photos gr?ce ? Sportograf66.17410015444505KUSTER Martial43FRATEAM ECC3:26:232:57 20.3515ma2NOTHALTEN
Vos photos gr?ce ? Sportograf67.19510036221194TROSTORF Ulrich56DEUBSV PROFIL HÜRT3:26:242:57 20.354ma3HÜRTGENWALD
Vos photos gr?ce ? Sportograf68.8310087809737VONK Mark48NLDFANATIXC3:26:302:57 20.3416ma2WAALWIJK
Vos photos gr?ce ? Sportograf69.22310023237342DOESBORG Mark22NLDCYCLING TEAM LI3:27:242:58 20.258eshBERINGE
Vos photos gr?ce ? Sportograf70.820RASSAERTS Olivier29BEL3:28:452:59 20.1219eliWESPELAAR
Vos photos gr?ce ? Sportograf71.17946670160274SIMON Antoine32FRAECKWERSHEIM3:28:462:59 20.1223ma1OBERNAI
Vos photos gr?ce ? Sportograf72.426WEERNINK Tim42NLD3:29:243:00 20.0617ma2NIJMEGEN
Vos photos gr?ce ? Sportograf73.16810015065696DEDION Dimitri31BELROCKRIDER RACIN3:29:293:00 20.0524ma1ETALLE
Vos photos gr?ce ? Sportograf74.16210002132667JUNKER Jérôme44LUXVU ESCH3:29:313:00 20.0518ma2SCHIFFLANGE
Vos photos gr?ce ? Sportograf75.26910023075986PETERS Maikel33NLDTMC3:29:333:00 20.0425ma1REUSEL
Vos photos gr?ce ? Sportograf76.3610090913939PROVENZANO Leroy29BEL3:30:073:01 19.9920eliBILZEN
Vos photos gr?ce ? Sportograf77.30220110015679WARIN Mathieu35FRAESCL BIKE3:30:213:01 19.9726ma1GRATTEPANCHE
Vos photos gr?ce ? Sportograf78.13110060003574VERJANS Nicolas45BELBIKE7 RACING TE3:31:163:02 19.8819ma2MOURCOURT
Vos photos gr?ce ? Sportograf79.28810073622576VAN ARKEL Denny49NLDWV HET STADION3:31:283:02 19.8620ma2IJSSELSTEIN UT
Vos photos gr?ce ? Sportograf80.455DECHAMPS Jacky47BEL3:31:513:02 19.8321ma2JALHAY
Vos photos gr?ce ? Sportograf81.1192CUIJPERS Joep39NLD3:32:083:02 19.8027ma1OIRSBEEK
Vos photos gr?ce ? Sportograf82.21110093858291BRAUNE Jean-Yves48BEL3:32:093:02 19.8022ma2PLAINEVAUX
Vos photos gr?ce ? Sportograf83.12210051010058BRUNO Vasco43BELBIKE TEAM B613:32:163:02 19.7923ma2NEERPELT
Vos photos gr?ce ? Sportograf84.1104DILLEN Dieter43BEL3:32:213:03 19.7824ma2OLEN
Vos photos gr?ce ? Sportograf85.21820191533952DE HEUS Jasper42NLDUWTC DE VOLHARD3:32:363:03 19.7625ma2WIJK BIJ DUURSTEDE
Vos photos gr?ce ? Sportograf86.915VAN DE VEN Johann44BEL3:32:523:03 19.7326ma2
Vos photos gr?ce ? Sportograf87.681JANSSENS Cas17BELRILLAARSE BIKER3:33:163:03 19.691junRILLAAR
Vos photos gr?ce ? Sportograf88.6410061867691DELHAYE Arnaud29BELGOLDEN TICHES3:33:253:03 19.6821eliBELLAIRE
Vos photos gr?ce ? Sportograf89.14610054524690HAEPERS Filip43BELPANACHE MTB TEA3:33:453:04 19.6527ma2WESTMEERBEEK
Vos photos gr?ce ? Sportograf90.5210006712582FPEETOOM Kirsten31NLDRESTORE CYCLING3:34:203:04 19.601damMAASTRICHT
Vos photos gr?ce ? Sportograf91.8210016348625BAUWENS Aaron19BELVANOMOBIL MTB C3:34:403:04 19.579eshEKSAARDE
Vos photos gr?ce ? Sportograf92.29310089764184CALONNE Erwin45BELTEAM VTT 3 CANA3:34:473:05 19.5628ma2HAUTRAGE
Vos photos gr?ce ? Sportograf93.634BAÏOLET Maxime30BELSHARKS TRIATHLO3:35:113:05 19.5228ma1SELOIGNES
Vos photos gr?ce ? Sportograf94.22410004822294DONY Jean-Philippe37BELJPD3:35:193:05 19.5129ma1VERLAINE
Vos photos gr?ce ? Sportograf95.3034210006240417VREUGDENHIL Stefan30NLDSOCKELOEN CYCLI3:36:283:06 19.4030ma1NAALDWIJK
Vos photos gr?ce ? Sportograf96.32510089645057WERTS Frederik30BEL3:36:553:06 19.3631ma1GEEL
Vos photos gr?ce ? Sportograf97.12MAHAUX Olivier43BELTRIATHLON ARDEN3:37:303:07 19.3129ma2TROIS-PONTS
Vos photos gr?ce ? Sportograf98.535CNUDDE Bert32BEL3:38:003:07 19.2732ma1ZULTE
Vos photos gr?ce ? Sportograf99.366HANSOULLE Olivier42BELSPA VTT3:38:493:08 19.2030ma2SART-LEZ-SPA
Vos photos gr?ce ? Sportograf100.898DE GELISSEN Kenneth28BELTEAM BREULS3:38:543:08 19.1922eliNEEROETEREN
Vos photos gr?ce ? Sportograf101.687HERBET Henri57BELAMB THEUX3:38:583:08 19.185ma3JALHAY
Vos photos gr?ce ? Sportograf102.613GUGGEMOS Tobias34DEUBRAND RIDERS3:39:023:08 19.1833ma1AACHEN
Vos photos gr?ce ? Sportograf103.30351TOP Basil22BEL3:39:103:08 19.1610eshSCHORISSE
Vos photos gr?ce ? Sportograf104.1005SANTERMANS Frederik41BELBOURGONDIËRS3:39:243:09 19.1431ma2HASSELT
Vos photos gr?ce ? Sportograf105.30710088136810DIDDEN Bart42BELVANOMOBIL MTB C3:39:413:09 19.1232ma2HERSELT
Vos photos gr?ce ? Sportograf106.1167WINDMOLDERS Vincent37BEL3:39:533:09 19.1034ma1KURINGEN
Vos photos gr?ce ? Sportograf107.24910022808421LELIJVELD Marc24NLDDIRTY HILL ATB3:39:593:09 19.0923eliHAASTRECHT
Vos photos gr?ce ? Sportograf108.943SCHÖLER Tom37DEUTEAM CAMPANA RA3:41:123:10 18.9935ma1WUPPERTAL
Vos photos gr?ce ? Sportograf109.3034610000907638FDE NEVE Marquerite25NLDWTC WOERDEN3:41:293:10 18.962damMIDDELBURG
Vos photos gr?ce ? Sportograf110.24110094124740HOFMANS Mart30NLDRSC ZUIDWESTHOE3:41:463:11 18.9436ma1ROOSENDAAL
Vos photos gr?ce ? Sportograf111.6810022972008VAN DONGEN Corné51NLD3:42:093:11 18.916ma3SINT MICHIELSGESTEL
Vos photos gr?ce ? Sportograf112.537CORBEELS Kurt47BEL3:42:253:11 18.8833ma2AARSCHOT
Vos photos gr?ce ? Sportograf113.1088WYBO Dieter38BELCAMABIKE3:42:383:11 18.8737ma1OOSTROZEBEKE
Vos photos gr?ce ? Sportograf114.565HACKIN Stéphane45BEL3:43:023:12 18.8334ma2VOROUX-GOREUX
Vos photos gr?ce ? Sportograf115.1021ALLARY Rune16BEL26/29 INCH COLL3:43:173:12 18.811debDUDZELE
Vos photos gr?ce ? Sportograf116.6610074981990DINI Sylvain43BELMJ CYCLE TEAM3:43:273:12 18.8035ma2AUVELAIS
Vos photos gr?ce ? Sportograf117.23910087886529HETTINGER Ludovic33FRATOUQUET ACC3:43:383:12 18.7838ma1CONDETTE
Vos photos gr?ce ? Sportograf118.30510091268088WOOS Olivier38BELBBIKES3:43:503:12 18.7739ma1LIEGE
Vos photos gr?ce ? Sportograf119.14210055081533CORVILAIN Olivier47BELAMB THEUX3:43:573:12 18.7536ma2LA REID
Vos photos gr?ce ? Sportograf120.21010090189267BRASSART Damien30BELCHAMPION'S RACI3:44:083:13 18.7440ma1MACON
Vos photos gr?ce ? Sportograf121.772GRAULUS Juan52BELMTB SPORTIEF3:44:423:13 18.697ma3VOSSEM
Vos photos gr?ce ? Sportograf122.925LIVET Michel52BEL3:44:543:13 18.688ma34831 - BILSTAIN
Vos photos gr?ce ? Sportograf123.514NEUVILLE Pierre28BEL3:45:133:14 18.6524eliLOUVEIGNÉ
Vos photos gr?ce ? Sportograf124.1128LAMBER Frank35NLD3:45:243:14 18.6341ma1VENLO
Vos photos gr?ce ? Sportograf125.368BERGER Michael52DEU3:45:533:14 18.599ma3DÜSSELDORF
Vos photos gr?ce ? Sportograf126.1102CHANTEUX Julien38BEL3:46:253:15 18.5542ma1MONCEAU IMBRECHIES
Vos photos gr?ce ? Sportograf127.770LEDANT Bruno40BEL3:46:263:15 18.5537ma2LIÈGE
Vos photos gr?ce ? Sportograf128.13010090346184CLOSSET Christophe35BELGILKINET CYCLIN3:46:373:15 18.5343ma1PEPINSTER
Vos photos gr?ce ? Sportograf129.30318TABAR Christophe30BEL3:46:383:15 18.5344ma1ETALLE
Vos photos gr?ce ? Sportograf130.30337VAN MIRLO Peter55BEL3:46:393:15 18.5310ma3BRECHT
Vos photos gr?ce ? Sportograf131.14910091957495VAN MIRLO Ronny53BELVLOERWERENVM.BE3:46:513:15 18.5211ma3SINT LENAARTS
Vos photos gr?ce ? Sportograf132.17510014769343JUNKER Steve48LUXVU ESCH3:46:523:15 18.5138ma2EISCHEN
Vos photos gr?ce ? Sportograf133.969MOLLERS Samuel33BEL3:47:123:15 18.4945ma1WAIMES
Vos photos gr?ce ? Sportograf134.885GODART Simon33BELBCJ3:47:363:16 18.4546ma1QUEVAUCAMPS
Vos photos gr?ce ? Sportograf135.30296WILMS Tobias34DEUMALOCHER-TEAM3:47:553:16 18.4347ma1BOTTROP
Vos photos gr?ce ? Sportograf136.30312VAN PAESSCHEN Stijn28BELSASBIKERS3:48:443:17 18.3625eliKAPELLE-OP-DEN-BOS
Vos photos gr?ce ? Sportograf137.24510023032935KEIJSERS Joep33NLDTWC NOORD-LIMBU3:48:473:17 18.3648ma1MAARN
Vos photos gr?ce ? Sportograf138.799VAN DER MAREL Nick29NLDRWV DE SPARTAAN3:48:493:17 18.3626eliSCHIEDAM
Vos photos gr?ce ? Sportograf139.1180SCAFS Maxence36BEL3:48:543:17 18.3549ma1LIÈGE
Vos photos gr?ce ? Sportograf140.32110053774255VAN DEN BERG Marco40NLDSTIPBIKE3:49:023:17 18.3439ma2NIJMEGEN
Vos photos gr?ce ? Sportograf141.4110036457432POTÉ Gilles26BEL3:49:083:17 18.3327eliDEINZE
Vos photos gr?ce ? Sportograf142.30313PEETERS Ward39BELT HOOGSTE PUNT3:49:253:17 18.3150ma1PUTTE
Vos photos gr?ce ? Sportograf143.4210014573323VALENTINY Georges32LUXTEAM TOPROAD3:49:283:17 18.3051ma1MERSCH
Vos photos gr?ce ? Sportograf144.1046FGEUENS Katrien40BELBIKE INN3:49:523:18 18.273damBEVEL
Vos photos gr?ce ? Sportograf145.1053DEPIENNE Julien33BELSTRIVE3:50:023:18 18.2652ma1BELLEFONTAINE
Vos photos gr?ce ? Sportograf146.738KNAKEN Marlon41NLDRETO ARNHEM3:50:033:18 18.2640ma2WESTERVOORT
Vos photos gr?ce ? Sportograf147.886BILLEN Kwinten35BEL3:50:063:18 18.2553ma1ZONHOVEN
Vos photos gr?ce ? Sportograf148.1132MARTIN Henri28BELGEMBLOUX AGRO-B3:50:293:18 18.2228eliGEMBLOUX
Vos photos gr?ce ? Sportograf149.29510082375717VAN POLLAERT Sven38BELVANOMOBIL MTB C3:50:333:18 18.2254ma1ERPE-MERE
Vos photos gr?ce ? Sportograf150.1170PONDANT Eric60BEL3:50:433:18 18.2012ma3SIBRET
Vos photos gr?ce ? Sportograf151.1133FPOSTMA Mary Rose Postma35NLD3:51:063:19 18.174damMAASTRICHT
Vos photos gr?ce ? Sportograf152.9210023174492LANGEVELD Bas43NLDWSV DE ZWALUWEN3:51:463:19 18.1241ma2DEVENTER
Vos photos gr?ce ? Sportograf153.876TUBAERT David31BELTEAM ALTITUDE T3:51:563:19 18.1155ma1GLONS
Vos photos gr?ce ? Sportograf154.15410058375893LAMBERTZ Daniel37DEUCOFFEE & CHAINR3:51:583:19 18.1156ma1ERKELENZ
Vos photos gr?ce ? Sportograf155.30357GEERTS Pieter30BEL3:52:063:19 18.1057ma1AFFLIGEM
Vos photos gr?ce ? Sportograf156.833VANDERTHOMMEN Daniel58BEL3:52:513:20 18.0413ma3WELKENRAEDT
Vos photos gr?ce ? Sportograf157.659DIVITA Frederic39BEL3:53:033:20 18.0258ma1ANDRIMONT
Vos photos gr?ce ? Sportograf158.376MONDELAERS Yoeri48BELKCT3:53:123:20 18.0142ma2SCHERPENHEUVEL ZICHEM
Vos photos gr?ce ? Sportograf159.30279KIELICH Dirk47BEL3:53:173:20 18.0043ma2ALKEN
Vos photos gr?ce ? Sportograf160.656DE WEERD Herman49NLDMTB DE ZEELEEUW3:53:243:21 18.0044ma2KROMMENIE
Vos photos gr?ce ? Sportograf161.435VERMEERSCH Gérald40BELPITAU TEAM3:53:273:21 17.9945ma2BRAINE L'ALLEUD
Vos photos gr?ce ? Sportograf162.30280HÄUSER Andreas56DEUBSV PROFIL HUER3:53:323:21 17.9914ma3HUERTGENWALD
Vos photos gr?ce ? Sportograf163.1383GENIN Ciryl29BELLES BRAQUETS DE3:53:343:21 17.9829eliIZEL
Vos photos gr?ce ? Sportograf164.663MOORS Serge37BEL3:53:413:21 17.9759ma1OUDSBERGEN
Vos photos gr?ce ? Sportograf165.1027HOURY Max27BEL3:53:573:21 17.9530eliBOVESSE
Vos photos gr?ce ? Sportograf166.354LEGRAS Francois32BEL3:54:013:21 17.9560ma1JALHAY
Vos photos gr?ce ? Sportograf167.463DE TROCH Kim38BEL3:54:113:21 17.9461ma1AFFLIGEM
Vos photos gr?ce ? Sportograf168.30344DE CUYPER Pieter30BEL3:54:143:21 17.9362ma1LEUVEN
Vos photos gr?ce ? Sportograf169.30331NR 30331 3:54:173:21 17.932xxx
Vos photos gr?ce ? Sportograf170.525CONSTANT Denis35BEL3:54:393:22 17.9063ma1PAIFVE
Vos photos gr?ce ? Sportograf171.30305STUIJT Floran36NLDMB SPORTSWEAR3:54:423:22 17.9064ma1WEHL
Vos photos gr?ce ? Sportograf172.30308HENDRIKS Mike35NLDMB SPORTSWEAR3:54:433:22 17.8965ma1DOETINCHEM
Vos photos gr?ce ? Sportograf173.30246POL Solano28ESPMTB OVERIJSE3:54:503:22 17.8931eliTERVUREN
Vos photos gr?ce ? Sportograf174.735ANCARD Antony31BELSPORT ET NATURE3:55:323:22 17.8366ma1MALMEDY
Vos photos gr?ce ? Sportograf175.375DELONGUEIL Miguel35BEL3:55:413:23 17.8267ma1FLOREFFE
Vos photos gr?ce ? Sportograf176.396FVREESWIJK-KELJA Riikka51NLDFINENZO CYCLING3:55:503:23 17.815damGORINCHEM
Vos photos gr?ce ? Sportograf177.22210088849859DELYS Dieter45BELTRUE SHOW RACIN3:55:513:23 17.8146ma2KOERSEL
Vos photos gr?ce ? Sportograf178.730HOLSBEEKX Gert28BEL3:56:103:23 17.7932eliGRAZEN
Vos photos gr?ce ? Sportograf179.951RAUW William28BEL3:56:193:23 17.7733eliWAIMES
Vos photos gr?ce ? Sportograf180.12910036115306DERVEAUX Claude54BELINTRASYS NO DRU3:56:553:24 17.7315ma3ZWEVEGEM
Vos photos gr?ce ? Sportograf181.1026CUPERS Renaud28BEL3:57:003:24 17.7234eliJULÉMONT
Vos photos gr?ce ? Sportograf182.30810090579085ANNENDIJCK Jesse30BELRIDE FOR FÉLINE3:57:093:24 17.7168ma1GEEL
Vos photos gr?ce ? Sportograf183.1335COLLARD Cyprien25BELLES BRAQUETS DE3:57:143:24 17.7035eliJAMOIGNE
Vos photos gr?ce ? Sportograf184.572DELAISSE Romain19BELLES BRAQUETS DE3:57:153:24 17.7011eshIZEL
Vos photos gr?ce ? Sportograf185.546VAN DE WEYER Rocco46BELTEAM-GREEN3:57:163:24 17.7047ma2WIEKEVORST
Vos photos gr?ce ? Sportograf186.30226VAN LAEKEN Dominiek44BEL3:57:203:24 17.7048ma2SINT-TRUIDEN
Vos photos gr?ce ? Sportograf187.32710024670720BOILLOT Eric39FRA3:57:233:24 17.6969ma1BARBEY-SEROUX
Vos photos gr?ce ? Sportograf188.30310013071992WEISHAUPT David27DEUBSV PROFIL HÜRT3:57:263:24 17.6936eliROETGEN
Vos photos gr?ce ? Sportograf189.1125JAUMOTTE Laurent40BELFLY EMINESRATES3:57:263:24 17.6949ma2EMINES
Vos photos gr?ce ? Sportograf190.369VAN DER STARRE Leon45NLD3:57:433:24 17.6750ma2REEUWIJK
Vos photos gr?ce ? Sportograf191.1031MASSARDI Romain27FRA3:57:473:24 17.6637eliOISY
Vos photos gr?ce ? Sportograf192.842STEPHANY Mark Steven36LUXLES DÉCHAÎNÉS D3:58:333:25 17.6170ma1KLEING ELCHERT
Vos photos gr?ce ? Sportograf193.889MEIJER Olaf48NLDCYCLES JEAN HAB3:59:043:25 17.5751ma2VALKENBURG A/D GEUL
Vos photos gr?ce ? Sportograf194.1013JEANTY Nico30BEL3:59:073:25 17.5671ma1KORTENBERG
Vos photos gr?ce ? Sportograf195.990VAN PEER Dieter30BEL3:59:173:26 17.5572ma1WINKSELE
Vos photos gr?ce ? Sportograf196.6310092717230KUPPER Michael40BELVTT CLUB HAUTES3:59:393:26 17.5352ma2SOURBRODT
Vos photos gr?ce ? Sportograf197.30209HUYBERECHTS Stijn38BELLINT18503:59:473:26 17.5273ma1GRIMBERGEN
Vos photos gr?ce ? Sportograf198.702CHUDZIK Serge52BELCCE/ESTINNES BI4:00:333:27 17.4616ma3LEVAL-TRAHEGNIES
Vos photos gr?ce ? Sportograf199.25810022968368NIELEN Peter49NLDCYCLING TEAM LI4:00:373:27 17.4653ma2SEVENUM
Vos photos gr?ce ? Sportograf200.26710023116191PEETERS Luuk50NLDCYCLING TEAM LI4:00:403:27 17.4517ma3KESSEL
Vos photos gr?ce ? Sportograf201.598REENAERS Kris38BEL4:00:493:27 17.4474ma1ZICHEM
Vos photos gr?ce ? Sportograf202.357LEMPERE Lucien51BELGCVERVIERS4:01:133:27 17.4118ma3LAMBERMONT
Vos photos gr?ce ? Sportograf203.30232KRÖLL Udo53DEUBSV PROVIL HÜRT4:01:153:27 17.4119ma3HEIMBACH
Vos photos gr?ce ? Sportograf204.1042DE WAELE Simon26BEL4:01:263:27 17.4038eliKRUISHOUTEM
Vos photos gr?ce ? Sportograf205.1084DE BOER Marius35NLD4:01:453:28 17.3775ma1ROTTERDAM
Vos photos gr?ce ? Sportograf206.30353VAN DROOGENBROECK Glen27BEL4:01:533:28 17.3639eliDENDERHOUTEM
Vos photos gr?ce ? Sportograf207.778MICHIELS Danny51BELTEAM GOLDENTICH4:02:093:28 17.3520ma3SPA
Vos photos gr?ce ? Sportograf208.584DRAAIJER Allard39NLD4:02:233:28 17.3376ma1ZWOLLE
Vos photos gr?ce ? Sportograf209.1074VERHERSTRAETEN Dirk50BEL4:02:273:28 17.3221ma3HERENTALS
Vos photos gr?ce ? Sportograf210.30010059230709VERSWIJVEL Eric55BELBIKE INN TEAM H4:02:273:28 17.3222ma3VORSELAAR
Vos photos gr?ce ? Sportograf211.995MERTENS Jeff21BELDECATHLON TURNH4:02:353:28 17.3112eshOOSTMALLE
Vos photos gr?ce ? Sportograf212.27910090259086SARENS Bastien22BELTEAM VTT 3 CANA4:02:463:29 17.3013eshBERNISSART
Vos photos gr?ce ? Sportograf213.14410088929580SARENS Sylvain33BELTEAM VTT 3 CANA4:02:583:29 17.2977ma1BLATON
Vos photos gr?ce ? Sportograf214.1000PETERS David39NLD4:03:093:29 17.2778ma1UTRECHT
Vos photos gr?ce ? Sportograf215.635KEERSMAEKERS Bert34BEL4:03:093:29 17.2779ma1TURNHOUT
Vos photos gr?ce ? Sportograf216.919BAUGNIEZ Maxime33BEL4:03:263:29 17.2580ma1HUY
Vos photos gr?ce ? Sportograf217.197LECOQ Allan63BEL4:03:423:29 17.2323ma3
Vos photos gr?ce ? Sportograf218.1032PAULSSEN Erik33NLD4:03:583:30 17.2281ma1VALKENBURG
Vos photos gr?ce ? Sportograf219.1137CHASTREUX Patrick37BEL4:04:153:30 17.2082ma1LANAYE
Vos photos gr?ce ? Sportograf220.724KOOMEN Ger52NLDMBT NOORDWEST4:04:453:30 17.1624ma3MEDEMBLIK
Vos photos gr?ce ? Sportograf221.340GEUENS Dieter38BELENDLESS BIKING 4:04:493:30 17.1683ma1RETIE
Vos photos gr?ce ? Sportograf222.32010094128275THANS Gert-Jan30BELTEAM JOVEN4:05:043:31 17.1484ma1OPOETEREN
Vos photos gr?ce ? Sportograf223.28610076094258THOMAS Daniel34BELBIKE4LIFE4:05:073:31 17.1385ma1STRÉPY-BRACQUEGNIES
Vos photos gr?ce ? Sportograf224.472KOX Hans42NLD4:05:093:31 17.1354ma2EERSEL
Vos photos gr?ce ? Sportograf225.395BIETS Ilja39BEL4:05:153:31 17.1386ma1HEERS
Vos photos gr?ce ? Sportograf226.774DETHIER Samuel31BEL4:05:443:31 17.0987ma1MALMEDY
Vos photos gr?ce ? Sportograf227.1040DRIESEN Jurgen43BELNO NAME CYCLING4:06:033:31 17.0755ma2MERKSPLAS
Vos photos gr?ce ? Sportograf228.1198FRANÇOIS Jean Michel49BEL4:06:303:32 17.0456ma2VILLERS-LE-TEMPLE
Vos photos gr?ce ? Sportograf229.999DE MEY Kevin25BELTECHNO BIKE RAC4:06:303:32 17.0440eliVIRELLES
Vos photos gr?ce ? Sportograf230.30307SCHUELLER Heinz69DEUBSV PROFIL HUER4:06:443:32 17.0225ma3ELSDORF
Vos photos gr?ce ? Sportograf231.859COSTA Jerome39BEL4:07:173:32 16.9988ma1GORCY
Vos photos gr?ce ? Sportograf232.30221OPPERDOES Bastiaan42NLDINSEGUITORI4:07:423:33 16.9657ma2KESSEL-LO
Vos photos gr?ce ? Sportograf233.1057GALIOTTO Xavier33BELTEAM BBIKES4:07:593:33 16.9489ma1VILLERS-SAINTE-GERTRUDE
Vos photos gr?ce ? Sportograf234.1117FSCHUPPEN Wendy47BEL4:08:103:33 16.926damHEERS
Vos photos gr?ce ? Sportograf235.857MULLER Bert41NLD4:08:383:34 16.8958ma2AMSTERDAM
Vos photos gr?ce ? Sportograf236.834KOOMEN Wout20NLDMTB NOORDWEST4:08:513:34 16.8814eshMEDEMBLIK
Vos photos gr?ce ? Sportograf237.30330FREDDY Dethier69BELGLOUMS4:09:223:34 16.8426ma3WAIMES
Vos photos gr?ce ? Sportograf238.462VAN DE LAER Dave35BEL4:09:353:34 16.8390ma1AVERBODE
Vos photos gr?ce ? Sportograf239.847VANGOOL Jasper31BELDE BOTSENKNOTSE4:09:383:34 16.8391ma1ARENDONK
Vos photos gr?ce ? Sportograf240.533HEYLEN Marc61BEL4:09:503:35 16.8127ma3NOORDERWJK
Vos photos gr?ce ? Sportograf241.31510065238443DRIES Sven36BELST. MARTINUS CT4:10:113:35 16.7992ma1HAALTERT
Vos photos gr?ce ? Sportograf242.986DIEU Donavan34BELCYCLO CENTRE ES4:10:213:35 16.7893ma1MERBES LE CHATEAU
Vos photos gr?ce ? Sportograf243.372VLEUGELS Jonas38BEL4:10:353:35 16.7694ma1SINT-JORIS-WEERT
Vos photos gr?ce ? Sportograf244.682JANSSENS Joris49BELRILLAARSE BIKER4:10:513:36 16.7459ma2RILLAAR
Vos photos gr?ce ? Sportograf245.884THILION Benjamin30BEL4:11:033:36 16.7395ma1LIÈGE
Vos photos gr?ce ? Sportograf246.789DUCHESNE Arnaud41BEL4:11:133:36 16.7260ma2LIÈGE
Vos photos gr?ce ? Sportograf247.979DRIESSENS Tom36BEL4:11:383:36 16.6996ma1ERPS-KWERPS
Vos photos gr?ce ? Sportograf248.447BUELENS Johan61BEL4:11:573:36 16.6728ma3ROTSELAAR
Vos photos gr?ce ? Sportograf249.9010065210959SEYNAVE Vincent41BELVANOMOBIL CYCLI4:12:143:37 16.6561ma2WERVIK
Vos photos gr?ce ? Sportograf250.498LOISEAU Julien37BELBIRD CYCLING TE4:13:113:38 16.5997ma1DOUR
Vos photos gr?ce ? Sportograf251.1138DELPERDANGE Michael28BEL4:13:123:38 16.5941eliBASTOGNE
Vos photos gr?ce ? Sportograf252.30314CORTHOUTS Benny41BEL4:13:473:38 16.5562ma2HASSELT
Vos photos gr?ce ? Sportograf253.18810025844622BARTOSIK Jerome49FRAVTT SAINT AMAND4:14:113:38 16.5263ma2LOMPRET
Vos photos gr?ce ? Sportograf254.862POPULAIRE Rémi27BELPURE RIDERS4:14:593:39 16.4742eliCHIÈVRES
Vos photos gr?ce ? Sportograf255.861POPULAIRE Bruno56BELPURE RIDERS4:15:013:39 16.4729ma3CHIÈVRES
Vos photos gr?ce ? Sportograf256.1185PEETERS Kobe18BEL4:15:063:39 16.472junBERINGEN
Vos photos gr?ce ? Sportograf257.1186PEETERS Kris51BEL4:15:063:39 16.4630ma3BERINGEN
Vos photos gr?ce ? Sportograf258.954VANDEREYKEN Koen42BELTEAM0134:15:083:39 16.4664ma2SCHAFFEN
Vos photos gr?ce ? Sportograf259.1038MONTULET Frederic42BEL4:15:123:39 16.4665ma2AYWAILLE
Vos photos gr?ce ? Sportograf260.1008DENISSEN Wim30BEL2550CC4:15:313:40 16.4498ma1WILRIJK
Vos photos gr?ce ? Sportograf261.30271WUILLIAUME Denis35BELPMX4:15:313:40 16.4499ma1CHENOIS
Vos photos gr?ce ? Sportograf262.503VAN DEN EYNDE Yannick29BEL2550CC4:15:323:40 16.4443eliKONTICH
Vos photos gr?ce ? Sportograf263.888CORNELIS Peter55BEL4:15:523:40 16.4231ma3URSEL
Vos photos gr?ce ? Sportograf264.891DE SMET Jan49BEL4:15:523:40 16.4166ma2MALDEGEM
Vos photos gr?ce ? Sportograf265.1050BAUTE Jeroen49BEL4:15:533:40 16.4167ma2ADEGEM
Vos photos gr?ce ? Sportograf266.821JORIS Verpoten36BELMUDRIDERS4:16:003:40 16.41100ma1LINT
Vos photos gr?ce ? Sportograf267.484BAILLY Raphaël40BEL4:16:103:40 16.4068ma2RETINNE
Vos photos gr?ce ? Sportograf268.1095WIT Maikel45NLD4:16:103:40 16.4069ma2WARMENHUIZEN
Vos photos gr?ce ? Sportograf269.790DELBROUCK Jean-Marc46BEL4:16:173:40 16.3970ma2NEUPRÉ
Vos photos gr?ce ? Sportograf270.20171ROSEN Gregory32BELPLAYBIKERS4:16:363:40 16.37101ma1MALMEDY
Vos photos gr?ce ? Sportograf271.1039LESCRENIER Didier42BEL4:16:413:41 16.3671ma2OUGRÉE
Vos photos gr?ce ? Sportograf272.9310087913508LEDEZ Fx38FRATOUQUET ACC4:16:523:41 16.35102ma1CONDETTE
Vos photos gr?ce ? Sportograf273.30264FVAN SCHAIJK Anne29NLDMTBARNHEM4:16:533:41 16.357damDOORWERTH
Vos photos gr?ce ? Sportograf274.639SPODEN Jonathan39BEL4:16:543:41 16.35103ma1WAIMES
Vos photos gr?ce ? Sportograf275.14310026652954BERNARD Alain57FRAOC GIF VTT4:17:053:41 16.3432ma3CHATILLON
Vos photos gr?ce ? Sportograf276.1063POELMAN Wim59BEL4:17:223:41 16.3233ma3KALKEN
Vos photos gr?ce ? Sportograf277.390HOEKSTRA Wouter45NLD4:17:363:41 16.3072ma2REEUWIJK
Vos photos gr?ce ? Sportograf278.1079HENDRICKX Jurgen34BEL4:17:583:42 16.28104ma1HERSELT
Vos photos gr?ce ? Sportograf279.1121LEIS Andreas39DEUTV KONZEN4:18:113:42 16.27105ma1MONSCHAU
Vos photos gr?ce ? Sportograf280.678BAETENS Kristof36BEL4:18:333:42 16.24106ma1PUTTE
Vos photos gr?ce ? Sportograf281.1029VANGENEUGDEN Koen42BELBEVERCROSSERS4:18:393:42 16.2473ma2HEUSDEN-ZOLDER
Vos photos gr?ce ? Sportograf282.527RAUW Mario46BELEIFELBIKER4:18:523:42 16.2374ma2WEYWERTZ
Vos photos gr?ce ? Sportograf283.526HALMES Steven35BELEIFELBIKER4:18:533:42 16.22107ma1BÜLLINGEN
Vos photos gr?ce ? Sportograf284.801DAMINATO Sebastien22FRA4:18:573:42 16.2215eshLES CLAYES SOUS BOIS
Vos photos gr?ce ? Sportograf285.595POLACHOWSKI Stephan59DEUBRAND-RIDERS4:18:583:42 16.2234ma3JÜLICH
Vos photos gr?ce ? Sportograf286.697ELGERSMA Hayo41NLD4:19:133:43 16.2075ma2WASPIK
Vos photos gr?ce ? Sportograf287.417QUATRELIVRE Jean-Marc58FRA4:19:193:43 16.2035ma3SAINT QUENTIN LAMOTTE
Vos photos gr?ce ? Sportograf288.1131FIRIS TenbackNLDMTB ARNHEM4:19:213:43 16.193xxxARNHEM
Vos photos gr?ce ? Sportograf289.1058TOUPIN-TRINCKVEL Hugo29FRA4:19:243:43 16.1944eliIXELLES
Vos photos gr?ce ? Sportograf290.903DAVID Thierry50BEL4:19:323:43 16.1836ma3SAINT-GEORGES SUR MEUSE
Vos photos gr?ce ? Sportograf291.1030JUSTUS Jahn20DEU4:19:403:43 16.1816eshGREFRATH
Vos photos gr?ce ? Sportograf292.443DERENNE Xavier28BEL4:19:453:43 16.1745eliDURBUY
Vos photos gr?ce ? Sportograf293.30234BLANCKE Bart51BEL4:20:243:44 16.1337ma3DE HAAN
Vos photos gr?ce ? Sportograf294.355BOSS Sebastian43NLD4:20:373:44 16.1276ma2OUDE TONGE
Vos photos gr?ce ? Sportograf295.723NACHSEM Daniel47BEL4:20:393:44 16.1177ma2MALMEDY
Vos photos gr?ce ? Sportograf296.753BLANKENDAAL Olaf44NLD4:20:423:44 16.1178ma2AMSTERDAM
Vos photos gr?ce ? Sportograf297.935BAUTERS Stijn33BEL4:21:023:44 16.09108ma1ZEGELSEM
Vos photos gr?ce ? Sportograf298.912STEVENNE Gilles47BEL4:21:133:44 16.0879ma2MUSSON
Vos photos gr?ce ? Sportograf299.1118RAEYMAEKERS Dieter28BELELZEBIKERS4:21:533:45 16.0446eliWILLEBROEK
Vos photos gr?ce ? Sportograf300.1119VAN NIEUWENHUYSE Tom40BEL4:21:533:45 16.0480ma2WILLEBROEK
Vos photos gr?ce ? Sportograf301.1171FCORDONNIER Caroline36BEL4:21:583:45 16.038damSIBRET
Vos photos gr?ce ? Sportograf302.624DRAAIJER KoenNLD4:22:043:45 16.034xxxEPE
Vos photos gr?ce ? Sportograf303.1024BLOKSMA Wiebe49NLD4:22:433:46 15.9981ma2SCHOORL
Vos photos gr?ce ? Sportograf304.1105VAN DEN HAUWE Mickael38BEL4:22:443:46 15.99109ma1VLEZENBEEK
Vos photos gr?ce ? Sportograf305.1073JANSSENS Jeroen40BEL4:22:443:46 15.9982ma2EREMBODEGEM
Vos photos gr?ce ? Sportograf306.420VERGAUWEN Ivan49BEL4:22:573:46 15.9783ma2BORNEM
Vos photos gr?ce ? Sportograf307.427CUYT Ivan45BEL4:22:583:46 15.9784ma2HINGENE
Vos photos gr?ce ? Sportograf308.689DUBOIS Olivier34BEL4:23:103:46 15.96110ma1HEIST-OP-DEN-BERG
Vos photos gr?ce ? Sportograf309.673STRAUVEN Racho43BEL4:23:393:46 15.9385ma2UETIKON AM SEE
Vos photos gr?ce ? Sportograf310.578OOMS Hans43BELHAIRY LEGS CYCL4:23:403:46 15.9386ma2EVERBERG
Vos photos gr?ce ? Sportograf311.30249MUES Filip44BEL4:23:443:47 15.9387ma2SCHERPENHEUVEL
Vos photos gr?ce ? Sportograf312.30309MEYNEN Toon28BEL4:23:543:47 15.9247eliMOL
Vos photos gr?ce ? Sportograf313.413MARCOUX Gerald45FRATEAM TURTLE BIK4:24:243:47 15.8988ma2ABBEVILLE
Vos photos gr?ce ? Sportograf314.582SEGHERS Cédric48BEL4:24:323:47 15.8889ma2DILBEEK
Vos photos gr?ce ? Sportograf315.599VISSCHER Jaap36NLD4:24:473:47 15.86111ma1SLIEDRECHT
Vos photos gr?ce ? Sportograf316.30320GALIOTTO Claudio57ITA4:24:533:48 15.8638ma3DURBUY
Vos photos gr?ce ? Sportograf317.557GOFFINET Raymond38BEL4:25:083:48 15.84112ma1VILLERS LE BOUILLET
Vos photos gr?ce ? Sportograf318.711TRINE Geoffrey29BEL4:25:313:48 15.8248eliMALMEDY
Vos photos gr?ce ? Sportograf319.30243RICHARD Schoenmaker45NLD4:25:393:48 15.8190ma2ALKMAAR
Vos photos gr?ce ? Sportograf320.963CROONENBERGHS Jo44BELSHORTMTBIKERS4:25:513:48 15.8091ma2EVERBERG
Vos photos gr?ce ? Sportograf321.1129ALEKSANDR Fomin25RUSDECATHLON/ROCKR4:26:273:49 15.7649eliMOSCOW
Vos photos gr?ce ? Sportograf322.920VERTOGEN Patrick51NLD4:26:333:49 15.7639ma3SUSTEREN
Vos photos gr?ce ? Sportograf323.1007UIJEN Johan36NLD4:26:363:49 15.75113ma1NIJMEGEN
Vos photos gr?ce ? Sportograf324.530GIEBELS Werner52BELMALMEDY MOUNTAI4:26:503:49 15.7440ma3MALMEDY
Vos photos gr?ce ? Sportograf325.22610073179511DROSTE Richard58NLDTWC DE KEMPEN4:26:563:49 15.7441ma3BERGEIJK
Vos photos gr?ce ? Sportograf326.508VALGAEREN Werther29BEL2550 CC4:27:043:49 15.7350eliWILRIJK
Vos photos gr?ce ? Sportograf327.1064DUCHAUSSOY Michel57FRA4:27:073:49 15.7242ma3AUBRY DU HAINAUT
Vos photos gr?ce ? Sportograf328.796PFEIFFER Steve36BEL4:27:183:50 15.71114ma1OVIFAT
Vos photos gr?ce ? Sportograf329.30348MAEBE Mathias31BEL4:27:183:50 15.71115ma1MELLE
Vos photos gr?ce ? Sportograf330.558LOCHT Raphael41BEL4:27:243:50 15.7192ma2VILLERS LE BOUILLET
Vos photos gr?ce ? Sportograf331.434GUILMAIN John45BEL4:27:363:50 15.7093ma2MARCHIN
Vos photos gr?ce ? Sportograf332.822DEKELVER Guy44BEL4:27:463:50 15.6994ma2TERVUREN
Vos photos gr?ce ? Sportograf333.21GORLID Carlos30ESP4:27:533:50 15.68116ma1
Vos photos gr?ce ? Sportograf334.20PELKMANS Christiaan27NLDFLYZ BIKES4:27:533:50 15.6851eli
Vos photos gr?ce ? Sportograf335.362VLEUGELS Sander36BEL4:28:113:50 15.66117ma1SINT-JORIS-WEERT
Vos photos gr?ce ? Sportograf336.854GERON Romain25BEL4:28:113:50 15.6652eliCHARNEUX
Vos photos gr?ce ? Sportograf337.30201GERON Thibaut27BEL4:28:163:50 15.6653eliCHARNEUX
Vos photos gr?ce ? Sportograf338.1004BERGS Brecht24BEL4:28:243:51 15.6554eliASSEBROEK
Vos photos gr?ce ? Sportograf339.1149ROSKAM Cédric27BELJANS BOIS4:28:483:51 15.6355eliLIÈGE
Vos photos gr?ce ? Sportograf340.30295FABIAN De Rooij47NLD4:28:513:51 15.6295ma2ALKMAAR
Vos photos gr?ce ? Sportograf341.894C.E. Baltus34NLD4:29:283:51 15.59118ma1NIJMEGEN
Vos photos gr?ce ? Sportograf342.896PENEZ Bart60BELPARAMOUNT SPORT4:29:363:52 15.5843ma3BRUGGE
Vos photos gr?ce ? Sportograf343.630SPODEN Ludovic41BELLES CHAINES ROU4:29:433:52 15.5796ma2FAYMONVILLE
Vos photos gr?ce ? Sportograf344.1176BERGS Rudi50BEL4:29:493:52 15.5744ma3HAMONT
Vos photos gr?ce ? Sportograf345.691DERUETTE Laurent40BELBIKING CLUB LA 4:30:483:53 15.5197ma2BELLEFONTAINE
Vos photos gr?ce ? Sportograf346.741COLBACK Sébastien48BELBC LA RULLES4:30:493:53 15.5198ma2HABERGY
Vos photos gr?ce ? Sportograf347.921VAN DESSEL Geert53BEL4:30:583:53 15.5045ma3WESTERLO
Vos photos gr?ce ? Sportograf348.890JACQUEMIN Philippe57BEL4:31:003:53 15.5046ma3MAASMECHELEN
Vos photos gr?ce ? Sportograf349.600GRANATA Fabrice43BEL4:31:023:53 15.5099ma2VOTTEM
Vos photos gr?ce ? Sportograf350.502LINDEN Herman62BEL4:31:203:53 15.4847ma3HERENTALS
Vos photos gr?ce ? Sportograf351.1116LOBJOIS Christophe48FRA4:31:313:53 15.47100ma2SOISSONS
Vos photos gr?ce ? Sportograf352.30288HARMSEN Robert Jan37NLD4:31:343:53 15.47119ma1HEERHUGOWAARD
Vos photos gr?ce ? Sportograf353.461LAMBORAY Pierre39BELPROMOVELO ARLON4:32:393:54 15.40120ma1WALTZING
Vos photos gr?ce ? Sportograf354.1191CREMER Michel48BEL4:32:523:54 15.39101ma2RAEREN
Vos photos gr?ce ? Sportograf355.409FAUQUEMBERGUE Gautier44FRATURTLE BIKE4:33:163:55 15.37102ma2BUIGNY LES GAMACHES
Vos photos gr?ce ? Sportograf356.800DAMINATO Philippe54FRA4:33:363:55 15.3548ma3LES CLAYES SOUS BOIS
Vos photos gr?ce ? Sportograf357.30302BAAK Marcel39NLD4:34:013:55 15.33121ma1ALKMAAR
Vos photos gr?ce ? Sportograf358.30215SA Floris40NLDPOURSUIVANTS AP4:34:023:55 15.33103ma2APELDOORN
Vos photos gr?ce ? Sportograf359.1153DOBBELAERE Wouter40BEL4:34:123:56 15.32104ma2BRUGGE
Vos photos gr?ce ? Sportograf360.1070FALISE Christian43BELDE RAPTE4:34:313:56 15.30105ma2HAASRODE
Vos photos gr?ce ? Sportograf361.669WILLEMSENS Stephane44BELAUBEL VTT4:34:483:56 15.28106ma2AUBEL
Vos photos gr?ce ? Sportograf362.30327VAN DER HULST Niels32NLD4:35:183:56 15.26122ma1NIEUWE NIEDORP
Vos photos gr?ce ? Sportograf363.30238LUC Selen43NLDLICHT VERZET NI4:35:193:56 15.26107ma2NIJMEGEN
Vos photos gr?ce ? Sportograf364.779STEEGMANS Stefan47BEL4:35:273:57 15.25108ma2WELLEN
Vos photos gr?ce ? Sportograf365.11210082853340WAGNEUR David55BELCAMMAERTS4:35:283:57 15.2549ma3GESVES
Vos photos gr?ce ? Sportograf366.825RASSAERTS Rudi59BEL4:35:343:57 15.2450ma3HAACHT
Vos photos gr?ce ? Sportograf367.481SOLTANI Karim41BELTDCH4:35:503:57 15.23109ma2MELEN
Vos photos gr?ce ? Sportograf368.425FRANCOIS Jordan38BELTDCH4:35:543:57 15.22123ma1BILSTAIN
Vos photos gr?ce ? Sportograf369.33428702231037STASSEN Renaud32BELVÉLO CLUB HOMBO4:35:543:57 15.22124ma1BELGIQUE
Vos photos gr?ce ? Sportograf370.436VAN HOFSTRAETEN Dries40BELBRUULBIKERS4:36:003:57 15.22110ma2DEURNE
Vos photos gr?ce ? Sportograf371.515FREDULTRA Fred53FRA4:36:373:58 15.1851ma3LIEVIN
Vos photos gr?ce ? Sportograf372.944GUYAUX Alan41BELLA FLY EMINESRA4:36:473:58 15.18111ma2ISNES
Vos photos gr?ce ? Sportograf373.996NUYTS Stefan37BEL4:36:503:58 15.17125ma1VORSELAAR
Vos photos gr?ce ? Sportograf374.856MONPROFIT Steven45BEL4:37:383:58 15.13112ma2LOCHRISTI
Vos photos gr?ce ? Sportograf375.555BERTRAND David44BEL4:37:423:59 15.12113ma2WANZE
Vos photos gr?ce ? Sportograf376.727VAN LANGEN Jasper33NLD4:37:533:59 15.11126ma1ALKMAAR
Vos photos gr?ce ? Sportograf377.788THIJS Sabbe31BEL4:38:073:59 15.10127ma1TIELT
Vos photos gr?ce ? Sportograf378.804MOLLEN Kevin29BEL4:38:293:59 15.0856eliMOL
Vos photos gr?ce ? Sportograf379.1126IVAN Bartholomeus41BEL4:38:514:00 15.06114ma2MEERHOUT
Vos photos gr?ce ? Sportograf380.1124VELDEMAN Iven45BELWANZEELSE WIELE4:39:044:00 15.05115ma2ERONDEGEM
Vos photos gr?ce ? Sportograf381.617SONNEVELD Pieter34NLD4:39:544:00 15.01128ma1HARDERWIJK
Vos photos gr?ce ? Sportograf382.30358DE ZUTTER Ben34BEL4:40:014:01 15.00129ma1ERTVELDE
Vos photos gr?ce ? Sportograf383.623POLLERS Patrick52BEL4:40:294:01 14.9752ma3PEER
Vos photos gr?ce ? Sportograf384.622STEENSELS Ronny52BEL4:40:324:01 14.9753ma3PELT
Vos photos gr?ce ? Sportograf385.998ROOSE Hans35BEL4:40:354:01 14.97130ma1HEUSDEN-ZOLDER
Vos photos gr?ce ? Sportograf386.875ROSET Bas40NLD4:40:584:01 14.95116ma2NIJMEGEN
Vos photos gr?ce ? Sportograf387.760PAUWELS Domien31BEL4:41:194:02 14.93131ma1LANGDORP
Vos photos gr?ce ? Sportograf388.1087VANDER MIERDE Maarten24BELWT MILLEGEM4:41:214:02 14.9357eliMOL
Vos photos gr?ce ? Sportograf389.442FLAMBERTY Stéphanie43BELPROMOVELO4:41:234:02 14.939damARLON
Vos photos gr?ce ? Sportograf390.746REINIER Van Bemmel37NLD4:41:594:02 14.89132ma1EDE
Vos photos gr?ce ? Sportograf391.625VAN DER VEER Boy37NLD4:42:254:03 14.87133ma1ROOSENDAAL
Vos photos gr?ce ? Sportograf392.460HOEKMAN Marc45NLD4:43:134:03 14.83117ma2BAD BENTHEIM
Vos photos gr?ce ? Sportograf393.23510026858573GRZYBEK Mathieu34FRABIKER CLUB NOIS4:43:254:03 14.82134ma1ROISSY-EN-BRIE
Vos photos gr?ce ? Sportograf394.499DEMOOR Niek32BEL4:43:424:04 14.80135ma1HARELBEKE
Vos photos gr?ce ? Sportograf395.30220JEROEN Vos44NLD4:43:514:04 14.80118ma2TILBURG
Vos photos gr?ce ? Sportograf396.30352LEMMENS Peter34CHE4:43:524:04 14.80136ma1NISTELRODE
Vos photos gr?ce ? Sportograf397.30231FDE MAEYER Laetitia38BELTEAM ADAPP4:43:544:04 14.7910damAFFLIGEM
Vos photos gr?ce ? Sportograf398.1091MASSONET Dominique42BELTEAM RAVAN4:44:314:04 14.76119ma2BORGLOON
Vos photos gr?ce ? Sportograf399.30273PELTENBURG Rolf35NLDENDUROLF4:44:454:05 14.75137ma1ROTTERDAM
Vos photos gr?ce ? Sportograf400.841HAESEN Bart46BELDEPOLIM4:44:524:05 14.74120ma2HAM
Vos photos gr?ce ? Sportograf401.1060DE WIT Thijs28BELRCT DE EDDY'S4:44:534:05 14.7458eliBAAL
Vos photos gr?ce ? Sportograf402.850VAN WIJK Johan31NLD4:44:554:05 14.74138ma1OOSTEIND
Vos photos gr?ce ? Sportograf403.415OUDART Olivier46FRATURTLE BIKE4:45:074:05 14.73121ma2LE CROTOY
Vos photos gr?ce ? Sportograf404.632PACOLET Omer65BEL4:45:284:05 14.7154ma3WANZE
Vos photos gr?ce ? Sportograf405.1092DUYCKAERTS Jacques47BEL4:45:354:05 14.71122ma2SOUMAGNE
Vos photos gr?ce ? Sportograf406.1035SOUGNÉ Philippe56BELTEAM S.M.4:45:384:05 14.7055ma3LIEGE
Vos photos gr?ce ? Sportograf407.1093LOUSBERG Guy48BEL4:45:494:05 14.70123ma2STEMBERT
Vos photos gr?ce ? Sportograf408.30322WOUTERS Rik48BELOFFSHORE BIKERS4:46:394:06 14.65124ma2BUGGENHOUT
Vos photos gr?ce ? Sportograf409.745LEENDERS Janus32NLD4:46:464:06 14.65139ma1EINDHOVEN
Vos photos gr?ce ? Sportograf410.30274JANSSEN Tim30NLD4:47:124:07 14.62140ma1ROTTERDAM
Vos photos gr?ce ? Sportograf411.939BERNARD Jonathan27BELCYCLO CLUB WEYL4:47:374:07 14.6059eliMESSANCY
Vos photos gr?ce ? Sportograf412.940JUNG Edwin28BELCYCLO CLUB WEYL4:47:384:07 14.6060eliMESSANCY
Vos photos gr?ce ? Sportograf413.983WEBER Olivier48BEL4:47:394:07 14.60125ma2LEVAL-TRAHEGNIES
Vos photos gr?ce ? Sportograf414.30350BERKHOUT Barry35NLD4:47:524:07 14.59141ma1
Vos photos gr?ce ? Sportograf415.780FLIGTHART Ineke41NLDATB NOORD4:48:004:07 14.5811damGRONINGEN
Vos photos gr?ce ? Sportograf416.1145BARTHOLOMÉ Damien30BEL4:48:254:08 14.56142ma1BOLLAND
Vos photos gr?ce ? Sportograf417.549FLAEREMANS Isidora57BEL4:48:254:08 14.5612damHERENTALS
Vos photos gr?ce ? Sportograf418.30265BENS Willian27NLDMCO OSS4:48:274:08 14.5661eliOSS
Vos photos gr?ce ? Sportograf419.30324LEYS Wannes22BELMTB GENT4:48:454:08 14.5517eshLANDEGEM
Vos photos gr?ce ? Sportograf420.15510007353994FVAN DEN HAUTE Steffy26BELVAN EYCK SPORT4:48:494:08 14.5413damNIEUWERKERKEN
Vos photos gr?ce ? Sportograf421.1054HERSSENS Jonathan29BEL4:49:054:08 14.5362eliOUDEGEM
Vos photos gr?ce ? Sportograf422.20196DI BARTOLOMEO Maxime37BEL4:49:234:09 14.51143ma1SERAING
Vos photos gr?ce ? Sportograf423.30229VAN DE VEN Eriv52NLD4:49:374:09 14.5056ma3NISTELRODE
Vos photos gr?ce ? Sportograf424.428BRAM Vranckx33BELXC TEAM FB4:49:574:09 14.49144ma1NEDEROKKERZEEL
Vos photos gr?ce ? Sportograf425.20195LEJEUNE Frédéric47BEL4:50:164:09 14.47126ma2SPRIMONT
Vos photos gr?ce ? Sportograf426.1135KONINGS Witse23BEL4:50:374:10 14.4563eliKALMTHOUT
Vos photos gr?ce ? Sportograf427.430STEVEN Decoster31BELXC TEAM FB4:50:554:10 14.44145ma1LOONBEEK
Vos photos gr?ce ? Sportograf428.744OLIJVE Luuk32NLD4:50:584:10 14.44146ma1EINDHOVEN
Vos photos gr?ce ? Sportograf429.734CALLEWAERT Dimitri38BEL4:51:324:10 14.41147ma1LICHTERVELDE
Vos photos gr?ce ? Sportograf430.592RÉVELART Romain35BELULTRA RAIS DES 4:51:384:10 14.40148ma1MORNIMONT
Vos photos gr?ce ? Sportograf431.1078VERCAUTEREN Diego40BEL4:51:514:11 14.39127ma2BAZEL
Vos photos gr?ce ? Sportograf432.933DELAITTE Benoit45BEL4:52:324:11 14.36128ma2SPRIMONT
Vos photos gr?ce ? Sportograf433.791DEN TEK Adrie48NLD4:52:384:11 14.35129ma2GREFRATH
Vos photos gr?ce ? Sportograf434.1025DECONINCK Kevin30BELDELRUE MTB TEAM4:52:424:11 14.35149ma1ZULTE
Vos photos gr?ce ? Sportograf435.30211BOGAERT Antoine42BEL4:53:254:12 14.31130ma2BRUXELLES
Vos photos gr?ce ? Sportograf436.23110085136981FYON Antoine35BELCOMITÉ RÉGIONAL4:53:314:12 14.31150ma1LIMBOURG
Vos photos gr?ce ? Sportograf437.851BAERT Cedric45BEL4:53:414:12 14.30131ma2ENAME
Vos photos gr?ce ? Sportograf438.31610071232841EECKHOUT Pieter49BEL4:53:414:12 14.30132ma2HOREBEKE
Vos photos gr?ce ? Sportograf439.8810072647324DEKEYSER Emlyn41BEL4:54:184:13 14.27133ma2VELDEGEM
Vos photos gr?ce ? Sportograf440.1166FTACK Cecile42BEL4:55:084:13 14.2314damKORBEEK-LO
Vos photos gr?ce ? Sportograf441.641DRAAIJER Klaas45NLD4:55:084:13 14.23134ma2HEERDE
Vos photos gr?ce ? Sportograf442.30233BAMPS Ruben31BEL4:55:214:14 14.22151ma1HOEPERTINGEN
Vos photos gr?ce ? Sportograf443.30230STROUVEN Pieter-Jan28BEL4:55:224:14 14.2264eliRUMMEN
Vos photos gr?ce ? Sportograf444.30287MORÉ Jf31BEL4:56:034:14 14.19152ma1FLÉMALLE
Vos photos gr?ce ? Sportograf445.815OETELAAR, VAN DEN Peter55NLDFANATIXC4:56:314:15 14.1657ma3DONGEN
Vos photos gr?ce ? Sportograf446.30222DILLEN Johan53BEL4:56:404:15 14.1658ma3BALEN
Vos photos gr?ce ? Sportograf447.30260FWEBER Renate34NLD4:56:504:15 14.1515damVALKENSWAARD
Vos photos gr?ce ? Sportograf448.30261DRIEDONKS Martijn36NLD4:56:514:15 14.15153ma1EINDHOVEN
Vos photos gr?ce ? Sportograf449.664DENAUW Emilien32BEL4:57:164:15 14.13154ma1MARCINELLE
Vos photos gr?ce ? Sportograf450.30258JORIS Dekkers31NLD4:57:224:15 14.12155ma1LIESHOUT
Vos photos gr?ce ? Sportograf451.541GAVAZZA Vincent47BELLAMYROULE4:57:234:15 14.12135ma2TIEGE
Vos photos gr?ce ? Sportograf452.30252SANDERS Coen46NLDBOSDUVELS4:57:244:15 14.12136ma2LIESHOUT
Vos photos gr?ce ? Sportograf453.1094SCHMETZ Freddy54BEL4:57:354:16 14.1159ma3LONTZEN
Vos photos gr?ce ? Sportograf454.566DAMS John43BEL4:57:394:16 14.11137ma2BERCHEM
Vos photos gr?ce ? Sportograf455.30334SZWAGRUN Adam62BEL4:57:504:16 14.1060ma3
Vos photos gr?ce ? Sportograf456.947VANHASSEL Sebastien38BEL4:58:044:16 14.09156ma1TROIS PONTS
Vos photos gr?ce ? Sportograf457.932DE RAIGNIAC Guillaume47FRA4:58:044:16 14.09138ma2METZ
Vos photos gr?ce ? Sportograf458.1077FOUBERT Mattias31BEL4:58:174:16 14.08157ma1ANTWERPEN
Vos photos gr?ce ? Sportograf459.1052VERHULST Johan42BEL'T SCHEEFWIEL4:58:474:17 14.06139ma2KRUIBEKE
Vos photos gr?ce ? Sportograf460.1056LAHURE Jérémy39BELLES DÉRAILLÉS4:59:074:17 14.04158ma1MASBOURG
Vos photos gr?ce ? Sportograf461.1037DESSY Gilles39BELLES DÉRAILLÉS4:59:094:17 14.04159ma1NASSOGNE
Vos photos gr?ce ? Sportograf462.1195JANNES Bart52NLD4:59:104:17 14.0461ma3HELMOND
Vos photos gr?ce ? Sportograf463.766RICHTER Maxime32BEL4:59:104:17 14.04160ma1NAMUR
Vos photos gr?ce ? Sportograf464.674RENETTE Olivier32BEL4:59:124:17 14.04161ma1SAINT ANDRÉ
Vos photos gr?ce ? Sportograf465.765VAN EECKHOUT Joel48BEL4:59:384:17 14.02140ma2BLANDAIN
Vos photos gr?ce ? Sportograf466.732REID Cliff39BEL4:59:534:18 14.01162ma1LEBBEKE
Vos photos gr?ce ? Sportograf467.733VANWEZER Tom40BEL4:59:544:18 14.00141ma2DENDERMONDE
Vos photos gr?ce ? Sportograf468.30298LEON De Grund50NLD5:00:174:18 13.9962ma3BERGSCHENHOEK
Vos photos gr?ce ? Sportograf469.1055FBOETS Chantal45BELLES DÉRAILLÉS5:00:294:18 13.9816damMASBOURG
Vos photos gr?ce ? Sportograf470.493DE WINTER Walt31BEL2550 CC KONTICH5:00:424:18 13.97163ma1KORTRIJK
Vos photos gr?ce ? Sportograf471.763SERRUYS Maximilien30BEL5:00:464:18 13.96164ma1LA CROIX DE LA ROCHETTE
Vos photos gr?ce ? Sportograf472.30326DE WINTER Filip36BEL5:00:524:18 13.96165ma1KONINGSHOOIKT
Vos photos gr?ce ? Sportograf473.1018FLEMMENS Heidi51BEL5:01:074:19 13.9517damHERENTHOUT
Vos photos gr?ce ? Sportograf474.611DAOUST Florent28BELBOYAU LUSTINOIS5:01:394:19 13.9265eliLUSTIN
Vos photos gr?ce ? Sportograf475.30299SMITS Art50NLD5:01:504:19 13.9263ma3SON EN BREUGEL
Vos photos gr?ce ? Sportograf476.761DEROME Frank53BEL5:02:004:19 13.9164ma3TOURNAI
Vos photos gr?ce ? Sportograf477.30207KRIMPEN VAN Steven57NLD5:02:034:19 13.9165ma3EINDHOVEN
Vos photos gr?ce ? Sportograf478.30245LUIJPEN Matthieu36NLD5:02:124:20 13.90166ma1BERLICUM
Vos photos gr?ce ? Sportograf479.1082FDE BACKER Maya25BEL5:02:444:20 13.8718damLOUVAIN-LA-NEUVE
Vos photos gr?ce ? Sportograf480.30317VAN ECK Henricus57NLD5:03:024:20 13.8666ma3BREUGEL
Vos photos gr?ce ? Sportograf481.30294STEPHAN De Lepper29NLD5:03:054:20 13.8666eliSON EN BREUGEL
Vos photos gr?ce ? Sportograf482.30272MORSHUIS Thomas55NLD5:03:074:20 13.8667ma3SON EN BREUGEL
Vos photos gr?ce ? Sportograf483.835MARTENS Robert48NLD5:03:084:20 13.86142ma2HORST
Vos photos gr?ce ? Sportograf484.817VAN NUETEN Ben33BEL/5:03:314:21 13.84167ma1HERENTALS
Vos photos gr?ce ? Sportograf485.970ROELS Bart35BELWTC53.135:03:334:21 13.84168ma1LEBBEKE
Vos photos gr?ce ? Sportograf486.807DEMIERBE Marc57BELMALMEDY MOUNTAI5:04:224:21 13.8068ma3MALMEDY
Vos photos gr?ce ? Sportograf487.579WEISSEN Holger49DEU5:04:264:21 13.80143ma2WEGBERG
Vos photos gr?ce ? Sportograf488.619VROOM Jan51BEL5:04:394:22 13.7969ma3MORTSEL
Vos photos gr?ce ? Sportograf489.785SAEIJ Morten30NLD5:04:394:22 13.79169ma1BIERVLIET
Vos photos gr?ce ? Sportograf490.618FVANDERHEYDEN Brigitte50BEL5:04:394:22 13.7919damMORTSEL
Vos photos gr?ce ? Sportograf491.836PHILIPSEN Eric51NLD5:04:484:22 13.7870ma3GEMERT
Vos photos gr?ce ? Sportograf492.918DEMEURIE Tom32BELDELRUE MTB TEAM5:04:584:22 13.77170ma1ANZEGEM
Vos photos gr?ce ? Sportograf493.620JACOBS Gilles37BEL5:05:284:22 13.75171ma1STEENOKKERZEEL
Vos photos gr?ce ? Sportograf494.797HERMY Wouter37BEL5:05:384:22 13.74172ma1VELDEGEM
Vos photos gr?ce ? Sportograf495.658DEDOYART Michael39BEL5:05:544:23 13.73173ma1PETIT-RECHAIN
Vos photos gr?ce ? Sportograf496.764TEDALDI Dario60BEL5:06:574:24 13.6871ma3KAIN
Vos photos gr?ce ? Sportograf497.30259CLAESSENS Steven44BEL5:07:104:24 13.67144ma2TEMSE
Vos photos gr?ce ? Sportograf498.971TEULINGKX Greg41BELTEAM 0135:07:304:24 13.66145ma2DIEST
Vos photos gr?ce ? Sportograf499.5910065452752FDE VOS Nele21BELINDIVIDUEEL5:07:414:24 13.6520damLOKEREN
Vos photos gr?ce ? Sportograf500.777LAGA Dimitri38BEL5:07:454:24 13.65174ma1OTEGEM
DNF: abandon; DSQ: disqualifié; Vitesse en km/h
Page: [1] 2